Time;durP1;ratioP1;P1;durP2;ratioP2;P2;SDS_P1;SDS_P2;PMS_P1;PMS_P2;Temp;Humidity;BMP_temperature;BMP_pressure;BME280_temperature;BME280_humidity;BME280_pressure;Samples;Min_cycle;Max_cycle;Signal;HPM_P1;HPM_P2
2022/01/21 00:00:08;;;;;;;;;;;-1.10;82.30;;;-2.59;78.48;95930.06;4070596;34;20204;-83
2022/01/21 00:02:38;;;;;;;;;;;-1.10;82.40;;;-2.58;78.66;95931.75;4093605;34;20209;-82
2022/01/21 00:05:08;;;;;;;;;;;-1.10;82.40;;;-2.58;78.49;95932.56;4071187;34;20215;-83
2022/01/21 00:07:36;;;;;;;;;;;-1.10;82.40;;;-2.59;78.29;95930.88;4092944;34;20199;-83
2022/01/21 00:10:07;;;;;;;;;;;-1.10;82.40;;;-2.58;78.46;95942.47;4117188;34;19903;-81
2022/01/21 00:12:36;;;;;;;;;;;-1.10;82.40;;;-2.59;78.31;95952.34;4093937;34;20227;-83
2022/01/21 00:15:08;;;;;;;;;;;-1.10;82.40;;;-2.59;78.72;95967.59;4093435;34;19910;-82
2022/01/21 00:17:37;;;;;;;;;;;-1.10;82.40;;;-2.58;78.24;96012.94;4092931;34;20245;-82
2022/01/21 00:31:12;;;;;;;;;;;-1.10;82.40;;;-2.57;78.48;96062.00;4120171;34;20204;-82
2022/01/21 00:33:41;;;;;;;;;;;-1.10;82.40;;;-2.58;78.09;96061.19;4097235;34;20220;-83
2022/01/21 00:36:10;;;;;;;;;;;-1.10;82.40;;;-2.58;78.56;96071.91;4069974;34;20206;-83
2022/01/21 00:38:41;;;;;;;;;;;-1.10;82.40;;;-2.57;78.45;96067.38;4068921;34;19910;-83
2022/01/21 00:41:11;;;;;;;;;;;-1.10;82.30;;;-2.58;78.10;96071.91;4094428;34;20032;-81
2022/01/21 00:43:44;;;;;;;;;;;-1.10;82.30;;;-2.58;78.62;96082.63;4091240;34;20228;-81
2022/01/21 00:46:14;;;;;;;;;;;-1.10;82.30;;;-2.58;78.14;96084.50;4069813;34;19907;-82
2022/01/21 00:48:42;;;;;;;;;;;-1.10;82.30;;;-2.58;78.07;96085.31;4116632;34;19907;-82
2022/01/21 00:51:11;;;;;;;;;;;-1.10;82.30;;;-2.58;78.26;96084.50;4070763;34;20580;-82
2022/01/21 00:53:39;;;;;;;;;;;-1.10;82.30;;;-2.59;78.07;96083.66;4092731;34;19910;-82
2022/01/21 00:56:08;;;;;;;;;;;-1.10;82.20;;;-2.59;78.07;96102.41;4092229;34;20218;-82
2022/01/21 00:58:37;;;;;;;;;;;-1.10;82.20;;;-2.59;78.47;96096.22;4069576;34;20196;-82
2022/01/21 01:01:05;;;;;;;;;;;-1.10;82.30;;;-2.59;78.46;96099.72;4069813;34;19943;-82
2022/01/21 01:03:35;;;;;;;;;;;-1.10;82.20;;;-2.59;78.21;96098.91;4091713;34;20196;-81
2022/01/21 01:06:04;;;;;;;;;;;-1.10;82.10;;;-2.59;77.93;96102.41;4091390;34;20223;-82
2022/01/21 01:08:32;;;;;;;;;;;-1.10;82.10;;;-2.60;78.29;96100.75;4069376;34;19907;-81
2022/01/21 01:11:20;;;;;;;;;;;-1.10;82.10;;;-2.62;78.10;96106.31;4090565;34;20222;-82
2022/01/21 01:22:08;;;;;;;;;;;-1.10;82.10;;;-2.60;78.33;96124.88;4067368;34;19910;-81
2022/01/21 01:27:40;;;;;;;;;;;-1.10;82.20;;;-2.60;78.42;96119.50;4066604;34;20200;-82
2022/01/21 01:30:12;;;;;;;;;;;-1.10;82.10;;;-2.59;78.28;96112.31;4063347;34;20195;-82
2022/01/21 01:32:41;;;;;;;;;;;-1.10;82.10;;;-2.60;77.85;96108.78;4062020;34;19910;-82
2022/01/21 01:35:13;;;;;;;;;;;-1.10;82.10;;;-2.59;78.26;96098.91;4109844;34;19910;-82
2022/01/21 01:38:09;;;;;;;;;;;-1.10;82.20;;;-2.61;78.42;96104.44;4084240;34;19903;-82
2022/01/21 01:40:42;;;;;;;;;;;-1.10;82.20;;;-2.60;78.40;96098.06;4091224;34;20188;-82
2022/01/21 01:51:26;;;;;;;;;;;-1.10;82.10;;;-2.60;78.03;96116.81;4072522;34;19918;-81
2022/01/21 01:53:57;;;;;;;;;;;-1.10;82.10;;;-2.60;78.00;96122.19;4094633;34;19903;-82
2022/01/21 01:56:27;;;;;;;;;;;-1.10;82.20;;;-2.60;78.23;96122.19;4116975;34;20215;-81
2022/01/21 01:58:56;;;;;;;;;;;-1.10;82.20;;;-2.60;78.28;96119.50;4117314;34;20459;-82
2022/01/21 02:01:24;;;;;;;;;;;-1.10;82.20;;;-2.59;77.99;96128.38;4116958;34;19903;-82
2022/01/21 02:03:53;;;;;;;;;;;-1.10;82.20;;;-2.59;78.44;96129.22;4094443;34;20570;-81
2022/01/21 02:06:21;;;;;;;;;;;-1.10;82.30;;;-2.60;78.19;96127.53;4116640;34;19927;-82
2022/01/21 02:08:51;;;;;;;;;;;-1.10;82.10;;;-2.61;77.88;96128.56;4118250;34;20200;-81
2022/01/21 02:11:20;;;;;;;;;;;-1.10;82.20;;;-2.60;78.17;96132.09;4094418;34;20574;-81
2022/01/21 02:13:56;;;;;;;;;;;-1.10;82.20;;;-2.60;78.28;96135.59;4094342;34;19914;-82
2022/01/21 02:16:37;;;;;;;;;;;-1.10;82.30;;;-2.60;78.54;96135.59;4093187;34;19903;-81
2022/01/21 02:21:53;;;;;;;;;;;-1.10;82.30;;;-2.60;78.12;96124.88;4072720;34;19903;-82
2022/01/21 02:24:30;;;;;;;;;;;-1.10;82.30;;;-2.60;78.16;96132.91;4071719;34;19910;-81
2022/01/21 02:27:01;;;;;;;;;;;-1.10;82.30;;;-2.59;78.16;96142.59;4093043;34;19903;-81
2022/01/21 02:29:42;;;;;;;;;;;-1.10;82.30;;;-2.59;78.60;96139.09;4093276;34;20196;-81
2022/01/21 02:32:11;;;;;;;;;;;-1.10;82.40;;;-2.59;78.53;96144.47;4094659;34;20197;-82
2022/01/21 02:34:40;;;;;;;;;;;-1.10;82.40;;;-2.60;78.75;96148.97;4071793;34;20396;-82
2022/01/21 02:37:12;;;;;;;;;;;-1.10;82.40;;;-2.60;78.55;96143.63;4073895;34;20203;-82
2022/01/21 02:39:40;;;;;;;;;;;-1.10;82.40;;;-2.61;78.49;96141.97;4074087;34;20216;-82
2022/01/21 02:42:10;;;;;;;;;;;-1.10;82.30;;;-2.60;78.35;96151.66;4075193;34;19903;-82
2022/01/21 02:44:39;;;;;;;;;;;-1.10;82.40;;;-2.59;78.18;96142.59;4098812;34;20241;-82
2022/01/21 02:47:08;;;;;;;;;;;-1.10;82.30;;;-2.60;78.69;96143.63;4073475;34;20120;-82
2022/01/21 02:49:42;;;;;;;;;;;-1.10;82.30;;;-2.60;78.85;96132.91;4073477;34;19918;-82
2022/01/21 02:52:14;;;;;;;;;;;-1.10;82.40;;;-2.60;78.39;96132.91;4095724;34;20195;-82
2022/01/21 02:54:42;;;;;;;;;;;-1.10;82.30;;;-2.60;78.42;96127.53;4095800;34;20252;-82
2022/01/21 02:57:12;;;;;;;;;;;-1.10;82.30;;;-2.61;78.55;96131.25;4095893;34;19910;-82
2022/01/21 02:59:41;;;;;;;;;;;-1.10;82.30;;;-2.59;78.24;96150.66;4073620;34;19903;-82
2022/01/21 03:02:10;;;;;;;;;;;-1.10;82.40;;;-2.59;78.19;96155.19;4097091;34;20122;-81
2022/01/21 03:04:48;;;;;;;;;;;-1.10;82.30;;;-2.59;78.41;96144.47;4096475;34;20231;-82
2022/01/21 03:07:19;;;;;;;;;;;-1.10;82.30;;;-2.60;78.24;96157.03;4073542;33;19910;-82
2022/01/21 03:09:48;;;;;;;;;;;-1.10;83.10;;;-2.59;78.59;96145.28;4074545;34;19903;-82
2022/01/21 03:12:16;;;;;;;;;;;-1.10;82.30;;;-2.59;78.09;96145.28;4072945;34;20208;-82
2022/01/21 03:14:45;;;;;;;;;;;-1.10;82.30;;;-2.61;78.14;96141.97;4074076;34;19907;-82
2022/01/21 03:17:13;;;;;;;;;;;-1.10;82.30;;;-2.59;78.20;96141.78;4096041;34;20197;-82
2022/01/21 03:19:42;;;;;;;;;;;-1.10;82.20;;;-2.59;78.37;96133.75;4096670;34;19902;-82
2022/01/21 03:22:12;;;;;;;;;;;-1.10;82.10;;;-2.61;78.03;96128.56;4097090;34;20196;-82
2022/01/21 03:24:42;;;;;;;;;;;-1.10;82.10;;;-2.59;78.38;96139.94;4120722;34;19903;-82
2022/01/21 03:27:11;;;;;;;;;;;-1.10;82.30;;;-2.59;78.06;96137.25;4097905;34;20305;-82
2022/01/21 03:29:39;;;;;;;;;;;-1.10;82.20;;;-2.59;78.23;96149.81;4076381;34;20211;-82
2022/01/21 03:32:09;;;;;;;;;;;-1.10;82.10;;;-2.60;78.21;96159.69;4076609;34;20230;-82
2022/01/21 03:34:40;;;;;;;;;;;-1.10;82.20;;;-2.60;78.23;96154.34;4098938;34;19910;-82
2022/01/21 03:37:09;;;;;;;;;;;-1.10;82.30;;;-2.59;78.50;96156.00;4095397;34;19910;-82
2022/01/21 03:39:38;;;;;;;;;;;-1.10;82.10;;;-2.59;77.87;96164.03;4118129;34;20198;-82
2022/01/21 03:42:08;;;;;;;;;;;-1.10;82.00;;;-2.59;78.11;96153.31;4095523;34;19907;-82
2022/01/21 03:44:37;;;;;;;;;;;-1.10;82.30;;;-2.60;78.53;96151.66;4095562;34;20204;-82
2022/01/21 03:47:06;;;;;;;;;;;-1.10;82.20;;;-2.60;78.29;96154.34;4072487;34;19903;-82
2022/01/21 03:49:38;;;;;;;;;;;-1.10;82.30;;;-2.62;78.39;96151.88;4117362;34;19918;-81
2022/01/21 03:52:08;;;;;;;;;;;-1.10;82.20;;;-2.60;78.21;96165.06;4071783;34;19907;-81
2022/01/21 03:54:37;;;;;;;;;;;-1.10;82.30;;;-2.59;78.39;96169.41;4093071;34;19907;-81
2022/01/21 03:57:06;;;;;;;;;;;-1.10;82.30;;;-2.59;77.95;96179.31;4069824;34;20216;-81
2022/01/21 03:59:35;;;;;;;;;;;-1.10;82.50;;;-2.60;78.15;96177.66;4093880;34;20219;-81
2022/01/21 04:02:06;;;;;;;;;;;-1.10;82.40;;;-2.58;78.41;96168.38;4094095;34;20204;-81
2022/01/21 04:04:35;;;;;;;;;;;-1.10;82.50;;;-2.59;78.31;96165.91;4116530;34;19903;-81
2022/01/21 04:07:07;;;;;;;;;;;-1.10;82.40;;;-2.58;78.60;96178.28;4070755;34;20199;-81
2022/01/21 04:09:41;;;;;;;;;;;-1.10;82.40;;;-2.59;78.59;96173.94;4066784;34;20202;-82
2022/01/21 04:12:10;;;;;;;;;;;-1.10;82.30;;;-2.60;78.64;96151.66;4089478;34;20261;-82
2022/01/21 04:14:42;;;;;;;;;;;-1.10;82.50;;;-2.60;78.46;96165.06;4042695;34;19910;-81
2022/01/21 04:17:10;;;;;;;;;;;-1.10;82.50;;;-2.59;78.53;96165.91;4064247;34;20232;-81
2022/01/21 04:19:39;;;;;;;;;;;-1.10;82.50;;;-2.59;78.72;96165.91;4090345;34;19903;-81
2022/01/21 04:22:09;;;;;;;;;;;-1.10;82.50;;;-2.59;78.35;96169.41;4089163;34;19903;-81
2022/01/21 04:24:38;;;;;;;;;;;-1.10;82.40;;;-2.59;78.22;96172.09;4062821;34;20196;-81
2022/01/21 04:27:07;;;;;;;;;;;-1.10;82.60;;;-2.59;78.42;96177.44;4102950;34;19903;-81
2022/01/21 04:29:35;;;;;;;;;;;-1.10;82.40;;;-2.59;78.38;96190.84;4058321;34;20214;-81
2022/01/21 04:32:09;;;;;;;;;;;-1.10;82.50;;;-2.60;78.20;96181.13;4081459;34;19903;-82
2022/01/21 04:34:38;;;;;;;;;;;-1.10;82.40;;;-2.61;78.28;96190.19;4082200;34;19907;-82
2022/01/21 04:37:10;;;;;;;;;;;-1.10;82.30;;;-2.59;78.31;96193.53;4083659;34;20232;-82
2022/01/21 04:39:58;;;;;;;;;;;-1.10;82.40;;;-2.60;78.44;96191.88;4083188;34;20246;-82
2022/01/21 04:48:00;;;;;;;;;;;-1.10;83.20;;;-2.59;78.41;96198.88;4059998;34;19903;-83
2022/01/21 04:50:38;;;;;;;;;;;-1.10;82.40;;;-2.59;78.16;96195.38;4059866;34;19903;-82
2022/01/21 04:53:07;;;;;;;;;;;-1.10;82.30;;;-2.60;78.46;96191.88;4082100;34;20110;-82
2022/01/21 04:55:39;;;;;;;;;;;-1.10;82.40;;;-2.60;78.06;96185.69;4059066;34;19902;-82
2022/01/21 04:58:08;;;;;;;;;;;-1.10;82.50;;;-2.59;78.66;96192.72;4082758;34;20214;-82
2022/01/21 05:00:38;;;;;;;;;;;-1.10;82.50;;;-2.60;78.48;96185.69;4060965;34;20235;-82
2022/01/21 05:03:10;;;;;;;;;;;-1.10;82.60;;;-2.60;78.80;96191.03;4082822;34;20207;-82
2022/01/21 05:05:38;;;;;;;;;;;-1.10;82.60;;;-2.60;78.54;96181.13;4061230;34;20216;-82
2022/01/21 05:08:11;;;;;;;;;;;-1.10;82.60;;;-2.60;78.37;96180.31;4039891;34;19910;-82
2022/01/21 05:10:39;;;;;;;;;;;-1.10;82.60;;;-2.59;78.55;96192.72;4064230;34;19938;-81
2022/01/21 05:13:08;;;;;;;;;;;-1.10;82.60;;;-2.60;78.73;96202.59;4040331;34;20209;-82
2022/01/21 05:15:58;;;;;;;;;;;-1.10;82.60;;;-2.60;78.91;96191.88;4063041;34;20110;-82
2022/01/21 05:18:28;;;;;;;;;;;-1.10;82.70;;;-2.59;78.55;96198.06;4062597;34;20230;-81
2022/01/21 05:21:20;;;;;;;;;;;-1.10;82.60;;;-2.60;78.42;96189.19;4049846;34;19911;-82
2022/01/21 05:24:08;;;;;;;;;;;-1.10;82.60;;;-2.60;78.77;96186.50;4064171;34;19903;-81
2022/01/21 05:26:39;;;;;;;;;;;-1.10;82.60;;;-2.59;78.20;96192.72;4040963;34;20197;-81
2022/01/21 05:29:10;;;;;;;;;;;-1.10;82.60;;;-2.60;78.73;96197.22;4042011;34;20236;-81
2022/01/21 05:31:53;;;;;;;;;;;-1.10;82.60;;;-2.60;78.89;96202.59;4042430;34;19904;-81
2022/01/21 05:34:38;;;;;;;;;;;-1.10;82.60;;;-2.60;78.71;96210.63;4064093;34;20217;-81
2022/01/21 05:37:19;;;;;;;;;;;-1.10;82.60;;;-2.60;78.72;96223.19;4063795;34;20110;-82
2022/01/21 05:40:10;;;;;;;;;;;-1.10;82.60;;;-2.62;78.50;96221.53;4064416;34;19911;-82
2022/01/21 05:42:45;;;;;;;;;;;-1.10;82.70;;;-2.61;78.48;96227.72;4042519;34;20226;-81
2022/01/21 05:48:53;;;;;;;;;;;-1.10;82.60;;;-2.61;78.35;96238.44;4086683;34;20208;-86
2022/01/21 05:51:41;;;;;;;;;;;-1.10;82.60;;;-2.60;78.48;96233.94;4063971;34;19908;-86
2022/01/21 05:54:10;;;;;;;;;;;-1.10;82.60;;;-2.62;78.45;96226.06;4065366;34;19903;-87
2022/01/21 05:57:12;;;;;;;;;;;-1.10;82.70;;;-2.61;78.62;96233.06;4063749;34;19903;-86
2022/01/21 05:59:43;;;;;;;;;;;-1.10;82.80;;;-2.62;78.95;96232.25;4068352;34;19914;-83
2022/01/21 06:02:12;;;;;;;;;;;-1.10;82.80;;;-2.61;78.89;96243.78;4068726;34;20238;-85
2022/01/21 06:04:43;;;;;;;;;;;-1.10;82.80;;;-2.63;78.50;96245.81;4068794;34;20207;-85
2022/01/21 06:07:13;;;;;;;;;;;-1.10;82.80;;;-2.63;78.75;96251.19;4089799;34;19910;-85
2022/01/21 06:09:43;;;;;;;;;;;-1.10;82.80;;;-2.64;78.82;96244.16;4069540;34;19910;-85
2022/01/21 06:12:12;;;;;;;;;;;-1.10;82.80;;;-2.62;78.75;96245.66;4090843;34;19903;-86
2022/01/21 06:14:41;;;;;;;;;;;-1.10;82.80;;;-2.62;78.53;96252.84;4069031;34;19903;-85
2022/01/21 06:17:11;;;;;;;;;;;-1.10;82.90;;;-2.62;78.99;96252.84;4092043;34;19910;-85
2022/01/21 06:19:40;;;;;;;;;;;-1.10;82.90;;;-2.60;78.77;96256.19;4093991;34;20227;-85
2022/01/21 06:22:09;;;;;;;;;;;-1.10;82.90;;;-2.61;78.84;96251.84;4115649;34;19903;-85
2022/01/21 06:24:40;;;;;;;;;;;-1.10;82.90;;;-2.59;78.61;96252.50;4115736;34;20200;-85
2022/01/21 06:27:15;;;;;;;;;;;-1.10;82.90;;;-2.54;78.70;96257.28;4093568;34;19910;-85
2022/01/21 06:29:49;;;;;;;;;;;-1.10;82.90;;;-2.51;79.06;96260.41;4093140;34;20193;-84
2022/01/21 06:32:29;;;;;;;;;;;-1.00;82.90;;;-2.48;78.42;96262.72;4115309;34;19910;-85
2022/01/21 06:35:08;;;;;;;;;;;-1.00;82.80;;;-2.42;78.55;96268.38;4114609;33;19903;-85
2022/01/21 06:37:42;;;;;;;;;;;-1.00;82.80;;;-2.38;78.76;96261.59;4112771;34;20543;-85
2022/01/21 06:40:19;;;;;;;;;;;-0.90;82.70;;;-2.37;78.28;96252.53;4113086;34;20194;-85
2022/01/21 06:42:52;;;;;;;;;;;-0.90;82.40;;;-2.32;78.59;96244.78;4114538;34;20203;-85
2022/01/21 06:45:27;;;;;;;;;;;-0.80;82.20;;;-2.28;78.12;96253.28;4114327;34;19903;-85
2022/01/21 06:47:58;;;;;;;;;;;-0.80;82.10;;;-2.26;78.01;96251.22;4090282;34;20203;-86
2022/01/21 06:50:41;;;;;;;;;;;-0.80;81.90;;;-2.26;77.91;96246.69;4068411;34;20541;-85
2022/01/21 06:53:10;;;;;;;;;;;-0.80;81.80;;;-2.26;77.91;96251.22;4115744;34;20845;-86
2022/01/21 06:55:40;;;;;;;;;;;-0.80;81.80;;;-2.25;77.67;96256.41;4093540;33;20563;-87
2022/01/21 06:58:09;;;;;;;;;;;-0.80;81.80;;;-2.23;77.45;96262.41;4092763;34;19926;-86
2022/01/21 07:00:37;;;;;;;;;;;-0.70;81.80;;;-2.26;77.90;96267.31;4093614;34;20200;-86
2022/01/21 07:03:06;;;;;;;;;;;-0.80;81.60;;;-2.25;77.68;96272.50;4094200;34;20235;-85
2022/01/21 07:05:34;;;;;;;;;;;-0.80;81.60;;;-2.26;77.91;96278.06;4072753;34;19963;-86
2022/01/21 07:08:03;;;;;;;;;;;-0.80;81.50;;;-2.27;77.48;96279.06;4073018;34;19925;-85
2022/01/21 07:10:31;;;;;;;;;;;-0.80;81.60;;;-2.29;77.75;96278.41;4072406;34;19903;-86
2022/01/21 07:13:01;;;;;;;;;;;-0.80;81.60;;;-2.31;77.84;96287.47;4116046;34;20223;-86
2022/01/21 07:15:30;;;;;;;;;;;-0.80;81.60;;;-2.32;78.16;96285.81;4094182;33;20193;-86
2022/01/21 07:17:58;;;;;;;;;;;-0.80;81.70;;;-2.33;77.93;96283.31;4091276;34;19910;-86
2022/01/21 07:20:27;;;;;;;;;;;-0.80;81.80;;;-2.35;78.19;96286.22;4069446;34;20245;-86
2022/01/21 07:22:56;;;;;;;;;;;-0.90;81.90;;;-2.36;78.08;96281.00;4068430;34;19903;-87
2022/01/21 07:25:24;;;;;;;;;;;-0.80;82.00;;;-2.37;78.33;96282.88;4086568;33;20190;-86
2022/01/21 07:27:53;;;;;;;;;;;-0.90;82.00;;;-2.38;78.27;96280.38;4083304;34;19903;-86
2022/01/21 07:30:23;;;;;;;;;;;-0.90;82.00;;;-2.41;78.41;96280.75;4084672;34;20202;-86
2022/01/21 07:32:51;;;;;;;;;;;-0.90;82.10;;;-2.41;78.04;96281.56;4108336;34;20211;-86
2022/01/21 07:35:20;;;;;;;;;;;-0.90;82.10;;;-2.40;78.04;96293.16;4061956;34;20221;-86
2022/01/21 07:37:48;;;;;;;;;;;-0.90;82.10;;;-2.41;77.96;96280.75;4059278;34;19903;-86
2022/01/21 07:40:17;;;;;;;;;;;-0.90;82.10;;;-2.45;78.26;96287.50;4060534;34;20250;-87
2022/01/21 07:42:46;;;;;;;;;;;-0.90;82.10;;;-2.43;78.13;96277.44;4081743;34;19910;-86
2022/01/21 07:45:14;;;;;;;;;;;-0.90;82.10;;;-2.47;78.29;96267.06;4080948;34;20207;-87
2022/01/21 07:47:44;;;;;;;;;;;-0.90;82.10;;;-2.43;78.05;96282.78;4079719;34;19903;-86
2022/01/21 07:50:13;;;;;;;;;;;-0.90;82.10;;;-2.43;77.78;96282.78;4058773;34;19910;-87
2022/01/21 07:52:41;;;;;;;;;;;-0.90;82.20;;;-2.44;78.38;96286.50;4058058;34;20516;-84
2022/01/21 07:55:10;;;;;;;;;;;-1.00;82.10;;;-2.48;78.13;96284.19;4059080;34;20198;-85
2022/01/21 07:57:41;;;;;;;;;;;-1.00;82.00;;;-2.44;78.46;96297.22;4057395;34;19910;-85
2022/01/21 08:00:10;;;;;;;;;;;-1.00;82.10;;;-2.45;78.14;96291.00;4057806;34;20124;-85
2022/01/21 08:02:42;;;;;;;;;;;-1.00;82.10;;;-2.45;78.46;96300.91;4082965;34;20389;-85
2022/01/21 08:05:15;;;;;;;;;;;-1.00;82.20;;;-2.45;78.46;96300.91;4060262;34;20003;-84
2022/01/21 08:07:43;;;;;;;;;;;-1.00;82.20;;;-2.44;78.38;96299.91;4060312;34;19910;-85
2022/01/21 08:10:12;;;;;;;;;;;-1.00;82.20;;;-2.45;78.25;96307.09;4060296;34;20223;-86
2022/01/21 08:12:41;;;;;;;;;;;-1.00;82.30;;;-2.47;78.14;96299.25;4083375;34;19903;-85
2022/01/21 08:15:10;;;;;;;;;;;-1.00;82.30;;;-2.45;78.33;96311.63;4065893;34;20215;-86
2022/01/21 08:17:40;;;;;;;;;;;-1.00;82.30;;;-2.47;77.96;96304.59;4088678;34;19910;-85
2022/01/21 08:20:10;;;;;;;;;;;-1.00;82.30;;;-2.47;78.20;96309.97;4089828;34;19910;-85
2022/01/21 08:22:40;;;;;;;;;;;-1.00;82.30;;;-2.47;78.37;96303.78;4084219;34;20186;-85
2022/01/21 08:25:10;;;;;;;;;;;-1.00;82.30;;;-2.48;78.46;96308.31;4065639;34;19907;-86
2022/01/21 08:27:38;;;;;;;;;;;-1.00;82.30;;;-2.50;78.34;96307.66;4089332;34;20525;-86
2022/01/21 08:30:09;;;;;;;;;;;-1.00;82.20;;;-2.48;78.04;96310.97;4066900;34;20572;-86
2022/01/21 08:32:37;;;;;;;;;;;-1.00;82.30;;;-2.47;78.34;96315.31;4112878;34;20201;-85
2022/01/21 08:35:07;;;;;;;;;;;-1.00;82.30;;;-2.49;78.53;96301.28;4089846;34;19910;-86
2022/01/21 08:37:36;;;;;;;;;;;-1.00;82.20;;;-2.47;78.06;96309.16;4089188;34;20226;-86
2022/01/21 08:40:08;;;;;;;;;;;-1.00;82.10;;;-2.48;78.40;96308.31;4062517;34;20321;-86
2022/01/21 08:42:37;;;;;;;;;;;-1.00;82.10;;;-2.44;78.11;96313.28;4083710;34;20253;-86
2022/01/21 08:45:07;;;;;;;;;;;-1.00;82.10;;;-2.43;78.33;96309.59;4067204;34;19902;-86
2022/01/21 08:47:35;;;;;;;;;;;-0.90;82.30;;;-2.42;78.34;96311.28;4066750;34;20217;-86
2022/01/21 08:50:07;;;;;;;;;;;-0.90;82.30;;;-2.36;78.31;96318.56;4089674;34;20203;-86
2022/01/21 08:52:37;;;;;;;;;;;-0.90;82.30;;;-2.38;78.03;96302.66;4089690;34;20215;-86
2022/01/21 08:55:08;;;;;;;;;;;-0.90;82.30;;;-2.34;78.21;96308.47;4068728;33;20633;-87
2022/01/21 08:57:39;;;;;;;;;;;-0.90;82.10;;;-2.30;77.84;96320.50;4068939;34;20193;-86
2022/01/21 09:00:09;;;;;;;;;;;-0.80;82.00;;;-2.27;78.16;96317.44;4092189;34;19911;-86
2022/01/21 09:02:38;;;;;;;;;;;-0.80;82.00;;;-2.27;78.17;96309.41;4069839;34;20201;-86
2022/01/21 09:05:07;;;;;;;;;;;-0.80;81.90;;;-2.22;77.89;96317.72;4069630;34;19910;-86
2022/01/21 09:07:36;;;;;;;;;;;-0.70;82.00;;;-2.17;78.04;96311.78;4068745;34;19903;-87
2022/01/21 09:10:07;;;;;;;;;;;-0.70;81.90;;;-2.17;77.80;96309.94;4115174;34;19903;-86
2022/01/21 09:12:49;;;;;;;;;;;-0.70;81.70;;;-2.13;78.13;96314.94;4068586;34;20204;-86
2022/01/21 09:15:25;;;;;;;;;;;-0.70;81.80;;;-2.09;77.73;96310.84;4091022;34;20167;-86
2022/01/21 09:18:07;;;;;;;;;;;-0.60;81.70;;;-2.06;77.87;96310.47;4090387;34;19903;-86
2022/01/21 09:20:43;;;;;;;;;;;-0.60;81.60;;;-2.00;77.33;96301.66;4091471;34;20222;-86
2022/01/21 09:23:16;;;;;;;;;;;-0.50;81.70;;;-1.95;77.31;96301.94;4069561;34;20188;-86
2022/01/21 09:25:56;;;;;;;;;;;-0.50;81.50;;;-1.92;77.24;96308.75;4068766;33;20217;-86
2022/01/21 09:29:18;;;;;;;;;;;-0.50;81.30;;;-1.94;77.53;96311.66;4071164;34;19903;-86
2022/01/21 09:31:55;;;;;;;;;;;-0.50;81.40;;;-1.97;77.56;96314.69;4112783;34;20476;-86
2022/01/21 09:34:31;;;;;;;;;;;-0.50;81.30;;;-1.98;77.29;96305.00;4066782;34;19903;-86
2022/01/21 09:37:04;;;;;;;;;;;-0.50;81.30;;;-2.02;77.50;96304.53;4111691;33;19907;-87
2022/01/21 09:39:38;;;;;;;;;;;-0.50;81.20;;;-2.05;77.58;96302.22;4067872;34;20204;-87
2022/01/21 09:42:12;;;;;;;;;;;-0.60;81.20;;;-2.07;77.60;96303.44;4091394;34;19903;-86
2022/01/21 09:44:47;;;;;;;;;;;-0.60;81.30;;;-2.10;77.37;96303.81;4068717;34;20209;-86
2022/01/21 09:47:27;;;;;;;;;;;-0.60;81.40;;;-2.17;78.28;96287.63;4113928;33;19903;-87
2022/01/21 09:49:56;;;;;;;;;;;-0.60;81.50;;;-2.16;77.87;96294.66;4068476;34;19918;-86
2022/01/21 09:52:27;;;;;;;;;;;-0.70;81.50;;;-2.19;78.06;96285.16;4091997;34;20189;-87
2022/01/21 09:55:00;;;;;;;;;;;-0.70;81.60;;;-2.21;77.72;96287.19;4092781;34;20202;-86
2022/01/21 09:57:33;;;;;;;;;;;-0.70;81.60;;;-2.23;78.18;96283.84;4067641;34;20243;-86
2022/01/21 10:00:07;;;;;;;;;;;-0.70;81.70;;;-2.21;77.87;96286.38;4091599;34;19910;-86
2022/01/21 10:02:40;;;;;;;;;;;-0.70;81.80;;;-2.23;77.95;96273.13;4092717;34;20195;-87
2022/01/21 10:05:12;;;;;;;;;;;-0.70;81.80;;;-2.23;78.05;96275.00;4070188;34;19910;-86
2022/01/21 10:07:46;;;;;;;;;;;-0.70;81.80;;;-2.23;78.04;96273.13;4112991;33;19918;-86
2022/01/21 10:10:15;;;;;;;;;;;-0.70;81.80;;;-2.23;77.83;96265.09;4065864;34;20223;-87
2022/01/21 10:13:01;;;;;;;;;;;-0.70;81.80;;;-2.21;78.13;96271.09;4087796;34;20212;-87
2022/01/21 10:15:43;;;;;;;;;;;-0.70;81.80;;;-2.19;77.72;96266.38;4061992;34;20214;-86
2022/01/21 10:18:32;;;;;;;;;;;-0.70;81.80;;;-2.18;77.73;96267.19;4060749;34;19925;-86
2022/01/21 10:21:12;;;;;;;;;;;-0.70;81.70;;;-2.18;77.88;96262.69;4104651;34;20572;-87
2022/01/21 10:23:47;;;;;;;;;;;-0.70;81.60;;;-2.18;77.91;96261.84;4059047;34;20225;-86
2022/01/21 10:26:22;;;;;;;;;;;-0.70;81.60;;;-2.20;77.95;96256.69;4080334;34;20233;-87
2022/01/21 10:28:59;;;;;;;;;;;-0.70;81.60;;;-2.22;77.91;96253.34;4058314;34;20526;-86
2022/01/21 10:31:34;;;;;;;;;;;-0.70;81.60;;;-2.19;77.60;96254.81;4059354;34;20215;-86
2022/01/21 10:34:06;;;;;;;;;;;-0.70;81.60;;;-2.19;77.67;96252.97;4058598;34;20236;-86
2022/01/21 10:36:45;;;;;;;;;;;-0.70;81.60;;;-2.18;77.85;96254.63;4058352;34;20202;-86
2022/01/21 10:39:28;;;;;;;;;;;-0.70;81.50;;;-2.19;77.46;96242.25;4104679;34;19910;-86
2022/01/21 10:42:00;;;;;;;;;;;-0.70;81.50;;;-2.18;77.75;96248.44;4058562;34;20233;-87
2022/01/21 10:44:38;;;;;;;;;;;-0.70;81.40;;;-2.18;77.54;96248.44;4080673;34;19903;-86
2022/01/21 10:47:12;;;;;;;;;;;-0.70;81.40;;;-2.18;77.59;96240.38;4061929;34;20244;-86
2022/01/21 10:49:59;;;;;;;;;;;-0.70;81.50;;;-2.19;77.70;96231.53;4086965;34;20196;-86
2022/01/21 10:52:41;;;;;;;;;;;-0.70;81.40;;;-2.18;77.68;96225.13;4111592;34;20213;-86
2022/01/21 10:55:29;;;;;;;;;;;-0.70;81.40;;;-2.18;77.50;96225.13;4064824;34;20222;-86
2022/01/21 10:58:08;;;;;;;;;;;-0.70;81.40;;;-2.18;77.80;96227.81;4058917;34;19910;-87
2022/01/21 11:01:08;;;;;;;;;;;-0.70;81.40;;;-2.18;77.39;96222.47;4060290;34;19903;-86
2022/01/21 11:03:58;;;;;;;;;;;-0.70;81.40;;;-2.16;77.24;96219.56;4090219;34;19903;-86
2022/01/21 11:06:37;;;;;;;;;;;-0.70;81.40;;;-2.14;77.59;96209.50;4066582;34;20215;-86
2022/01/21 11:09:30;;;;;;;;;;;-0.70;81.30;;;-2.13;77.92;96213.84;4083967;34;19907;-87
2022/01/21 11:12:15;;;;;;;;;;;-0.60;81.30;;;-2.11;77.31;96216.31;4035911;34;20210;-87
2022/01/21 11:14:59;;;;;;;;;;;-0.60;81.30;;;-2.10;77.25;96216.16;4034337;34;20226;-87
2022/01/21 11:17:34;;;;;;;;;;;-0.60;81.20;;;-2.07;77.62;96206.88;4034246;34;19903;-87
2022/01/21 11:20:16;;;;;;;;;;;-0.60;81.10;;;-2.06;77.39;96211.22;4067890;34;19929;-87
2022/01/21 11:22:55;;;;;;;;;;;-0.60;81.10;;;-2.07;77.24;96198.84;4060353;34;20453;-88
2022/01/21 11:25:44;;;;;;;;;;;-0.60;81.00;;;-2.06;77.44;96216.59;4081757;34;20206;-87
2022/01/21 11:28:20;;;;;;;;;;;-0.60;81.00;;;-2.08;77.50;96207.91;4059378;34;20763;-86
2022/01/21 11:30:57;;;;;;;;;;;-0.60;81.00;;;-2.10;77.47;96212.63;4058857;34;19910;-86
2022/01/21 11:33:32;;;;;;;;;;;-0.60;81.00;;;-2.12;77.10;96209.28;4080331;34;20229;-87
2022/01/21 11:36:05;;;;;;;;;;;-0.60;81.10;;;-2.14;77.37;96206.81;4057908;34;19903;-87
2022/01/21 11:38:44;;;;;;;;;;;-0.60;81.10;;;-2.15;77.33;96207.81;4081008;34;20205;-87
2022/01/21 11:41:16;;;;;;;;;;;-0.70;81.20;;;-2.20;77.43;96200.34;4059608;34;20533;-86
2022/01/21 11:43:51;;;;;;;;;;;-0.70;81.30;;;-2.18;77.50;96205.53;4081395;34;20202;-86
2022/01/21 11:46:48;;;;;;;;;;;-0.70;81.30;;;-2.20;77.72;96211.09;4077923;34;20194;-87
2022/01/21 11:49:19;;;;;;;;;;;-0.70;81.40;;;-2.21;77.71;96212.09;4055652;34;20194;-86
2022/01/21 11:51:48;;;;;;;;;;;-0.70;81.50;;;-2.23;77.40;96213.31;4057589;34;20236;-87
2022/01/21 11:54:18;;;;;;;;;;;-0.70;81.50;;;-2.26;78.03;96205.66;4058040;34;19910;-86
2022/01/21 11:56:47;;;;;;;;;;;-0.70;81.50;;;-2.24;77.82;96220.53;4058068;34;20215;-87
2022/01/21 11:59:26;;;;;;;;;;;-0.70;81.60;;;-2.24;77.55;96220.53;4080095;34;19903;-87
2022/01/21 12:01:55;;;;;;;;;;;-0.80;81.50;;;-2.25;77.69;96216.16;4058474;34;20216;-85
2022/01/21 12:04:43;;;;;;;;;;;-0.80;81.50;;;-2.26;77.50;96219.88;4080650;34;19903;-84
2022/01/21 12:07:59;;;;;;;;;;;-0.80;81.50;;;-2.27;77.68;96218.25;4057881;34;20522;-86
2022/01/21 12:10:46;;;;;;;;;;;-0.80;81.60;;;-2.26;77.37;96213.69;4057944;34;20214;-85
2022/01/21 12:13:20;;;;;;;;;;;-0.80;81.60;;;-2.27;77.71;96222.75;4057758;34;20209;-85
2022/01/21 12:19:23;;;;;;;;;;;-0.80;81.60;;;-2.29;77.54;96214.91;4059937;34;20203;-86
2022/01/21 12:21:56;;;;;;;;;;;-0.80;81.70;;;-2.29;77.79;96208.69;4060344;34;20429;-86
2022/01/21 12:24:55;;;;;;;;;;;-0.80;81.70;;;-2.30;77.66;96202.53;4082361;34;20453;-86
2022/01/21 12:27:26;;;;;;;;;;;-0.80;81.70;;;-2.30;77.77;96210.56;4071227;34;20207;-86
2022/01/21 12:30:29;;;;;;;;;;;-0.80;81.70;;;-2.31;77.89;96200.84;4082658;34;19903;-87